NEODyS-2

Near Earth Objects - Dynamic Site
NEODyS ∴ Observatories ∴ Site J26 ∴ Obs & residuals
Contact »
J26  ▹ 
OBSERVATIONS AND RESIDUALS

J26-The Spaceguard Centre, Knighton

Detections | Residuals | Detections & Residuals

[1-79]

Designation T Tech N Date Right Ascension Declination Apparent Magnitude Star Catalog Site code χ Used A Used M
yr-mo-day precision hr:min:sec precision rms F bias residual deg min sec precision rms F bias residual mag/col rms residual
2009MC9 O C 2009-08-21.94308 1.000E-05 20:27:59.830 1.500E-01 1.000 F -0.136 0.930 -20° 45' 09.10" 1.000E-01 1.000 F -0.053 0.346 15.4 V 0.70 -0.56 c J26 0.99 Yes Yes
2009MC9 O C 2009-08-21.94383 1.000E-05 20:27:59.850 1.500E-01 1.000 F -0.136 -0.173 -20° 45' 06.70" 1.000E-01 1.000 F -0.053 -0.103 15.5 V 0.70 -0.46 c J26 0.20 Yes Yes
2009MC9 O C 2009-08-21.94799 1.000E-05 20:28:00.420 1.500E-01 1.000 F -0.136 0.147 -20° 44' 50.30" 1.000E-01 1.000 F -0.053 0.493 15.9 V 0.70 -0.07 c J26 0.52 Yes Yes
2009MC9 O C 2009-08-21.94944 1.000E-05 20:28:00.620 1.500E-01 1.000 F -0.136 0.277 -20° 44' 45.60" 1.000E-01 1.000 F -0.053 -0.317 16.2 V 0.70 0.23 c J26 0.42 Yes Yes
2000LC16 O C 2009-08-28.90909 1.000E-05 21:18:15.190 1.500E-01 1.000 F 0.001 -0.020 +00° 31' 19.10" 1.000E-01 1.000 F 0.451 0.184 14.8 V 0.70 0.23 c J26 0.18 Yes Yes
2000LC16 O C 2009-08-28.91339 1.000E-05 21:18:15.800 1.500E-01 1.000 F 0.001 0.346 +00° 31' 28.10" 1.000E-01 1.000 F 0.451 -0.332 14.7 V 0.70 0.13 c J26 0.48 Yes Yes
2000LC16 O C 2009-08-28.91596 1.000E-05 21:18:16.160 1.500E-01 1.000 F 0.001 0.499 +00° 31' 34.20" 1.000E-01 1.000 F 0.451 0.081 14.7 V 0.70 0.13 c J26 0.51 Yes Yes
Anteros O C 2009-09-09.92176 1.000E-05 22:07:16.240 1.500E-01 1.000 F 0.138 -0.420 +14° 23' 22.70" 1.000E-01 1.000 F 0.431 -0.957 16.1 V 0.70 -0.08 c J26 1.05 Yes Yes
Anteros O C 2009-09-09.92400 1.000E-05 22:07:16.070 1.500E-01 1.000 F 0.138 -0.519 +14° 23' 20.30" 1.000E-01 1.000 F 0.431 -0.890 16.1 V 0.70 -0.08 c J26 1.03 Yes Yes
Anteros O C 2009-09-09.92796 1.000E-05 22:07:15.780 1.500E-01 1.000 F 0.138 -0.540 +14° 23' 15.60" 1.000E-01 1.000 F 0.431 -1.227 16.1 V 0.70 -0.08 c J26 1.34 Yes Yes
Anteros O C 2009-09-09.93159 1.000E-05 22:07:15.530 1.500E-01 1.000 F 0.138 -0.329 +14° 23' 12.00" 1.000E-01 1.000 F 0.431 -0.827 15.9 V 0.70 -0.28 c J26 0.89 Yes Yes
Anteros O C 2009-09-20.93990 1.000E-05 21:57:36.240 1.500E-01 1.000 F 0.299 -0.266 +10° 57' 49.70" 1.000E-01 1.000 F 0.433 0.368 16.5 V 0.70 -0.04 c J26 0.45 Yes Yes
Anteros O C 2009-09-20.94188 1.000E-05 21:57:36.160 1.500E-01 1.000 F 0.299 -0.298 +10° 57' 47.10" 1.000E-01 1.000 F 0.433 -0.051 16.3 V 0.70 -0.24 c J26 0.30 Yes Yes
Anteros O C 2009-09-20.94448 1.000E-05 21:57:36.010 1.500E-01 1.000 F 0.299 -1.003 +10° 57' 43.40" 1.000E-01 1.000 F 0.433 -0.886 16.4 V 0.70 -0.14 c J26 1.34 Yes Yes
Anteros O C 2009-09-20.94810 1.000E-05 21:57:35.940 1.500E-01 1.000 F 0.299 0.059 +10° 57' 40.80" 1.000E-01 1.000 F 0.433 0.504 16.4 V 0.70 -0.14 c J26 0.51 Yes Yes
Anteros O C 2009-10-16.81530 1.000E-05 21:58:35.550 1.500E-01 1.000 F 0.197 -0.194 +04° 32' 05.20" 1.000E-01 1.000 F 0.637 0.829 17.5 V 0.70 -0.05 c J26 0.85 Yes Yes
Anteros O C 2009-10-16.81729 1.000E-05 21:58:35.660 1.500E-01 1.000 F 0.197 0.475 +04° 32' 01.80" 1.000E-01 1.000 F 0.637 -1.298 17.2 V 0.70 -0.35 c J26 1.38 Yes Yes
Anteros O C 2009-10-16.82208 1.000E-05 21:58:35.800 1.500E-01 1.000 F 0.197 0.221 +04° 31' 59.70" 1.000E-01 1.000 F 0.637 -0.335 17.0 V 0.70 -0.55 c J26 0.40 Yes Yes
2002XN14 O C 2009-12-18.94277 1.000E-05 03:50:39.180 1.500E-01 1.000 F -0.241 0.685 +15° 46' 58.70" 1.000E-01 1.000 F 0.472 1.381 16.1 C 0.70 -0.43 c J26 1.55 Yes Yes
2002XN14 O C 2009-12-18.94446 1.000E-05 03:50:39.530 1.500E-01 1.000 F -0.241 -0.166 +15° 47' 11.80" 1.000E-01 1.000 F 0.472 1.228 16.6 C 0.70 0.07 c J26 1.25 Yes Yes
2002XN14 O C 2009-12-18.94669 1.000E-05 03:50:40.100 1.500E-01 1.000 F -0.241 0.272 +15° 47' 28.50" 1.000E-01 1.000 F 0.472 0.446 16.5 C 0.70 -0.03 c J26 0.53 Yes Yes
2002XN14 O C 2009-12-18.94853 1.000E-05 03:50:40.610 1.500E-01 1.000 F -0.241 1.206 +15° 47' 43.40" 1.000E-01 1.000 F 0.472 0.926 16.6 C 0.70 0.07 c J26 1.53 Yes Yes
2001MZ7 O C 2010-01-22.99793 1.000E-05 08:09:09.210 1.500E-01 1.000 F 0.379 0.023 +06° 16' 11.50" 1.000E-01 1.000 F 0.165 0.678 13.7 C 0.70 0.39 c J26 0.68 Yes Yes
2001MZ7 O C 2010-01-23.00203 1.000E-05 08:09:09.060 1.500E-01 1.000 F 0.379 -0.220 +06° 16' 29.30" 1.000E-01 1.000 F 0.165 0.674 13.7 C 0.70 0.39 c J26 0.71 Yes Yes
2001MZ7 O C 2010-01-23.00424 1.000E-05 08:09:09.030 1.500E-01 1.000 F 0.379 0.408 +06° 16' 38.20" 1.000E-01 1.000 F 0.165 -0.022 13.7 C 0.70 0.39 c J26 0.41 Yes Yes
2004RA11 O C K 2010-03-04.97399 1.000E-05 09:08:29.950 1.500E-01 1.000 F -0.034 -3.178 -14° 54' 41.90" 1.000E-01 1.000 F -0.015 -3.680 17.7 C 0.70 -0.51 u J26 4.81 No Yes
Sigurd O C 2010-03-08.00297 1.000E-05 10:16:13.370 1.500E-01 1.000 F -0.099 -0.225 +31° 42' 37.10" 1.000E-01 1.000 F -0.002 -0.189 15.9 C 0.70 -0.35 u J26 0.29 Yes Yes
Sigurd O C 2010-03-08.00449 1.000E-05 10:16:13.050 1.500E-01 1.000 F -0.099 -0.563 +31° 42' 34.80" 1.000E-01 1.000 F -0.002 -0.305 16.8 C 0.70 0.55 u J26 0.64 Yes Yes
Sigurd O C 2010-03-08.00735 1.000E-05 10:16:12.520 1.500E-01 1.000 F -0.099 -0.281 +31° 42' 30.70" 1.000E-01 1.000 F -0.002 -0.294 16.9 C 0.70 0.65 u J26 0.41 Yes Yes
2001SK162 O C K 2010-03-11.81035 1.000E-05 06:20:37.110 1.500E-01 1.000 F -0.039 0.711 +18° 48' 17.30" 1.000E-01 1.000 F 0.031 0.177 16.9 C 0.70 -0.45 u J26 0.73 Yes Yes
2005YU55 O C 2010-04-11.92616 1.000E-05 13:12:29.660 1.500E-01 1.000 F 0.127 -1.023 -04° 43' 54.20" 1.000E-01 1.000 F 0.120 -0.281 16.2 V 0.70 0.17 o J26 1.06 Yes Yes
2005YU55 O C 2010-04-11.95994 1.000E-05 13:12:15.080 1.500E-01 1.000 F 0.127 0.264 -04° 42' 06.10" 1.000E-01 1.000 F 0.120 0.295 16.3 V 0.70 0.27 o J26 0.40 Yes Yes
2005YU55 O C 2010-04-12.00247 1.000E-05 13:11:56.340 1.500E-01 1.000 F 0.127 0.253 -04° 39' 49.50" 1.000E-01 1.000 F 0.120 -0.269 16.0 V 0.70 -0.02 o J26 0.37 Yes Yes
Dionysus O C 2010-04-14.96575 1.000E-05 13:10:21.550 1.500E-01 1.000 F 0.242 0.248 +27° 20' 33.60" 1.000E-01 1.000 F 0.185 0.149 17.2 V 0.70 -0.28 o J26 0.29 Yes Yes
Dionysus O C 2010-04-14.96834 1.000E-05 13:10:21.240 1.500E-01 1.000 F 0.242 -0.292 +27° 20' 35.20" 1.000E-01 1.000 F 0.185 0.250 17.5 V 0.70 0.02 o J26 0.38 Yes Yes
Dionysus O C 2010-04-14.97269 1.000E-05 13:10:20.810 1.500E-01 1.000 F 0.242 0.010 +27° 20' 37.60" 1.000E-01 1.000 F 0.185 0.135 17.3 V 0.70 -0.18 o J26 0.13 Yes Yes
Talos O C 2010-08-08.94089 1.000E-05 22:29:17.810 1.500E-01 1.000 F -0.074 0.361 +24° 41' 16.30" 1.000E-01 1.000 F 0.205 -0.663 16.6 V 0.70 0.00 o J26 0.76 Yes Yes
Talos O C 2010-08-08.94318 1.000E-05 22:29:16.630 1.500E-01 1.000 F -0.074 -0.808 +24° 41' 03.50" 1.000E-01 1.000 F 0.205 -0.637 16.8 V 0.70 0.20 o J26 1.03 Yes Yes
Talos O C 2010-08-08.94466 1.000E-05 22:29:16.040 1.500E-01 1.000 F -0.074 0.790 +24° 40' 54.80" 1.000E-01 1.000 F 0.205 -1.047 16.8 V 0.70 0.20 o J26 1.31 Yes Yes
Talos O C 2010-08-08.94788 1.000E-05 22:29:14.430 1.500E-01 1.000 F -0.074 -0.180 +24° 40' 37.90" 1.000E-01 1.000 F 0.205 0.091 16.6 V 0.70 0.00 o J26 0.20 Yes Yes
Cerberus O C 2010-08-10.93931 1.000E-05 21:00:59.340 1.500E-01 1.000 F 0.003 0.608 +36° 43' 08.90" 1.000E-01 1.000 F 0.224 0.579 16.8 V 0.70 -0.38 o J26 0.84 Yes Yes
Cerberus O C 2010-08-10.94096 1.000E-05 21:00:59.040 1.500E-01 1.000 F 0.003 0.394 +36° 43' 03.80" 1.000E-01 1.000 F 0.224 -1.009 16.5 V 0.70 -0.68 o J26 1.08 Yes Yes
Cerberus O C 2010-08-10.94602 1.000E-05 21:00:58.050 1.500E-01 1.000 F 0.003 -1.102 +36° 42' 54.00" 1.000E-01 1.000 F 0.224 -0.033 17.1 V 0.70 -0.08 o J26 1.10 Yes Yes
Cerberus O C 2010-08-12.92502 1.000E-05 20:55:40.920 1.500E-01 1.000 F -0.044 0.188 +35° 30' 36.20" 1.000E-01 1.000 F 0.250 1.216 16.4 V 0.70 -0.79 o J26 1.23 Yes Yes
Cerberus O C 2010-08-12.92600 1.000E-05 20:55:40.690 1.500E-01 1.000 F -0.044 -0.695 +35° 30' 31.50" 1.000E-01 1.000 F 0.250 -1.307 16.9 V 0.70 -0.29 o J26 1.48 Yes Yes
Cerberus O C 2010-08-12.92771 1.000E-05 20:55:40.480 1.500E-01 1.000 F -0.044 0.101 +35° 30' 29.00" 1.000E-01 1.000 F 0.250 -0.008 16.5 V 0.70 -0.69 o J26 0.10 Yes Yes
Vishnu O C K 2010-08-15.91897 1.000E-05 19:15:27.430 1.500E-01 1.000 F 0.051 -0.395 -04° 34' 33.30" 1.000E-01 1.000 F 0.299 -0.272 17.9 V 0.70 0.23 o J26 0.48 Yes Yes
Saunders O C 2010-09-02.92988 1.000E-05 21:54:26.110 1.500E-01 1.000 F -0.132 -0.335 -00° 36' 31.40" 1.000E-01 1.000 F 0.180 -0.385 16.3 V 0.70 -0.30 o J26 0.51 Yes Yes
Saunders O C 2010-09-02.93119 1.000E-05 21:54:26.340 1.500E-01 1.000 F -0.132 0.657 -00° 36' 33.20" 1.000E-01 1.000 F 0.180 -0.437 16.8 V 0.70 0.20 o J26 0.79 Yes Yes
Saunders O C 2010-09-02.93198 1.000E-05 21:54:26.450 1.500E-01 1.000 F -0.132 0.826 -00° 36' 33.70" 1.000E-01 1.000 F 0.180 0.117 16.5 V 0.70 -0.10 o J26 0.83 Yes Yes
Saunders O C 2010-09-02.93354 1.000E-05 21:54:26.600 1.500E-01 1.000 F -0.132 0.150 -00° 36' 36.00" 1.000E-01 1.000 F 0.180 -0.102 16.5 V 0.70 -0.10 o J26 0.18 Yes Yes
Epona O C 2010-12-05.83590 1.000E-05 00:57:48.330 1.500E-01 1.000 F -0.107 0.380 +08° 35' 03.80" 1.000E-01 1.000 F 0.470 0.005 16.3 V 0.70 -0.11 c J26 0.38 Yes Yes
Epona O C 2010-12-05.83719 1.000E-05 00:57:48.500 1.500E-01 1.000 F -0.107 -0.346 +08° 35' 02.20" 1.000E-01 1.000 F 0.470 0.173 16.4 V 0.70 -0.01 c J26 0.39 Yes Yes
Epona O C 2010-12-05.84064 1.000E-05 00:57:49.130 1.500E-01 1.000 F -0.107 0.315 +08° 34' 57.90" 1.000E-01 1.000 F 0.470 0.601 16.8 V 0.70 0.39 c J26 0.68 Yes Yes
Pocahontas O C 2012-09-18.84815 1.000E-05 20:20:46.790 1.500E-01 1.000 F -0.035 0.309 +14° 20' 28.50" 1.000E-01 1.000 F 0.203 -0.206 17.0 V 0.70 -0.21 o J26 0.37 Yes Yes
Pocahontas O C 2012-09-18.85429 1.000E-05 20:20:47.310 1.500E-01 1.000 F -0.035 0.089 +14° 20' 14.00" 1.000E-01 1.000 F 0.203 0.058 18.0 V 0.70 0.79 o J26 0.11 Yes Yes
Pocahontas O C 2012-09-18.85686 1.000E-05 20:20:47.600 1.500E-01 1.000 F -0.035 1.048 +14° 20' 07.40" 1.000E-01 1.000 F 0.203 -0.361 17.0 V 0.70 -0.21 o J26 1.11 Yes Yes
2012XZ6 O C 2012-12-05.90765 1.000E-05 03:52:56.460 1.500E-01 2.000 F -0.170 0.241 +12° 40' 45.40" 1.000E-01 2.000 F 0.172 -1.297 16.1 V 0.70 -0.21 o J26 0.66 Yes Yes
2012XZ6 O C 2012-12-05.90943 1.000E-05 03:52:56.410 1.500E-01 2.000 F -0.170 -0.414 +12° 40' 06.30" 1.000E-01 2.000 F 0.172 -2.028 16.7 V 0.70 0.39 o J26 1.04 Yes Yes
2012XZ6 O C 2012-12-05.91037 1.000E-05 03:52:56.420 1.500E-01 2.000 F -0.170 -0.227 +12° 39' 46.40" 1.000E-01 2.000 F 0.172 -1.668 16.2 V 0.70 -0.12 o J26 0.84 Yes Yes
2012XZ6 O C 2012-12-05.91178 1.000E-05 03:52:56.470 1.500E-01 2.000 F -0.170 0.567 +12° 39' 16.20" 1.000E-01 2.000 F 0.172 -1.483 16.3 V 0.70 -0.02 o J26 0.79 Yes Yes
2012XZ6 O C 2012-12-05.91308 1.000E-05 03:52:56.460 1.500E-01 2.000 F -0.170 0.479 +12° 38' 49.30" 1.000E-01 2.000 F 0.172 -0.371 16.5 V 0.70 0.18 o J26 0.30 Yes Yes
2012XZ6 O C 2012-12-05.91442 1.000E-05 03:52:56.430 1.500E-01 2.000 F -0.170 0.101 +12° 38' 19.70" 1.000E-01 2.000 F 0.172 -1.102 17.2 V 0.70 0.88 o J26 0.55 Yes Yes
2012XZ6 O C 2012-12-05.91501 1.000E-05 03:52:56.420 1.500E-01 2.000 F -0.170 -0.018 +12° 38' 06.60" 1.000E-01 2.000 F 0.172 -1.493 16.6 V 0.70 0.28 o J26 0.75 Yes Yes
2012XZ6 O C 2012-12-05.91613 1.000E-05 03:52:56.400 1.500E-01 2.000 F -0.170 -0.259 +12° 37' 43.50" 1.000E-01 2.000 F 0.172 -0.468 16.6 V 0.70 0.28 o J26 0.27 Yes Yes
2012XZ6 O C 2012-12-05.91742 1.000E-05 03:52:56.490 1.500E-01 2.000 F -0.170 1.119 +12° 37' 13.60" 1.000E-01 2.000 F 0.172 -2.584 17.3 V 0.70 0.98 o J26 1.41 Yes Yes
2012XZ6 O C 2012-12-05.92005 1.000E-05 03:52:56.370 1.500E-01 2.000 F -0.170 -0.511 +12° 36' 18.10" 1.000E-01 2.000 F 0.172 -1.453 16.5 V 0.70 0.18 o J26 0.77 Yes Yes
2012XZ6 O C 2012-12-05.92167 1.000E-05 03:52:56.430 1.500E-01 2.000 F -0.170 0.446 +12° 35' 44.60" 1.000E-01 2.000 F 0.172 -0.077 16.5 V 0.70 0.18 o J26 0.23 Yes Yes
2012XZ6 O C 2012-12-05.92316 1.000E-05 03:52:56.390 1.500E-01 2.000 F -0.170 -0.066 +12° 35' 09.90" 1.000E-01 2.000 F 0.172 -2.705 17.0 V 0.70 0.68 o J26 1.35 Yes Yes
2012XZ6 O C 2012-12-05.92483 1.000E-05 03:52:56.380 1.500E-01 2.000 F -0.170 -0.129 +12° 34' 34.50" 1.000E-01 2.000 F 0.172 -2.165 16.2 V 0.70 -0.12 o J26 1.09 Yes Yes
2012XZ6 O C 2012-12-05.92595 1.000E-05 03:52:56.390 1.500E-01 2.000 F -0.170 0.074 +12° 34' 11.60" 1.000E-01 2.000 F 0.172 -0.965 16.3 V 0.70 -0.02 o J26 0.48 Yes Yes
2012XZ6 O C 2012-12-05.92681 1.000E-05 03:52:56.390 1.500E-01 2.000 F -0.170 0.118 +12° 33' 51.80" 1.000E-01 2.000 F 0.172 -2.261 16.8 V 0.70 0.48 o J26 1.13 Yes Yes
2012XZ6 O C 2012-12-05.92878 1.000E-05 03:52:56.360 1.500E-01 2.000 F -0.170 -0.220 +12° 33' 08.80" 1.000E-01 2.000 F 0.172 -2.881 17.1 V 0.70 0.78 o J26 1.45 Yes Yes
1998QR52 O C 2015-09-07.87785 1.000E-05 20:29:21.330 1.500E-01 1.000 F -0.010 0.236 +02° 05' 06.00" 1.000E-01 1.000 F 0.186 -0.063 18.0 V 0.70 -0.80 o J26 0.24 Yes Yes
1998QR52 O C 2015-09-07.87910 1.000E-05 20:29:21.100 1.500E-01 1.000 F -0.010 -0.906 +02° 05' 07.00" 1.000E-01 1.000 F 0.186 0.374 18.2 V 0.70 -0.60 o J26 0.98 Yes Yes
1998QR52 O C 2015-09-07.88420 1.000E-05 20:29:20.510 1.500E-01 1.000 F -0.010 -0.342 +02° 05' 09.70" 1.000E-01 1.000 F 0.186 0.779 17.9 V 0.70 -0.90 o J26 0.85 Yes Yes
Eros O C 2019-02-25.92873 1.000E-05 06:19:26.020 1.500E-01 1.000 F -0.120 -0.270 +07° 54' 34.70" 1.000E-01 1.000 F 0.093 -0.876 10.6 V 0.70 0.82 o J26 0.92 Yes Yes
Eros O C 2019-02-25.93280 1.000E-05 06:19:26.700 1.500E-01 1.000 F -0.120 -0.082 +07° 54' 28.00" 1.000E-01 1.000 F 0.093 -0.199 10.4 V 0.70 0.62 o J26 0.22 Yes Yes
Eros O C 2019-02-25.93642 1.000E-05 06:19:27.300 1.500E-01 1.000 F -0.120 0.008 +07° 54' 21.20" 1.000E-01 1.000 F 0.093 -0.437 10.3 V 0.70 0.52 o J26 0.44 Yes Yes

[1-79]